Time;durP1;ratioP1;P1;durP2;ratioP2;P2;SDS_P1;SDS_P2;PMS_P1;PMS_P2;Temp;Humidity;BMP_temperature;BMP_pressure;BME280_temperature;BME280_humidity;BME280_pressure;Samples;Min_cycle;Max_cycle;Signal;HPM_P1;HPM_P2
2022/04/25 00:00:16;;;;;;;8.55;6.03;;;;;;;14.60;42.71;100717.88;6337918;22;20056;-63
2022/04/25 00:02:42;;;;;;;;;;;;;;;14.56;42.60;100722.72;6339058;22;20449;-64
2022/04/25 00:05:09;;;;;;;7.32;5.95;;;;;;;14.58;42.34;100718.00;6311225;22;19919;-63
2022/04/25 00:07:37;;;;;;;9.32;5.80;;;;;;;14.54;42.49;100724.69;6310847;22;20019;-63
2022/04/25 00:10:10;;;;;;;8.68;5.70;;;;;;;14.53;42.58;100717.56;6337939;22;20019;-64
2022/04/25 00:12:36;;;;;;;8.65;6.05;;;;;;;14.53;42.95;100720.28;6337943;22;20015;-63
2022/04/25 00:15:03;;;;;;;8.88;6.55;;;;;;;14.52;43.04;100723.97;6338504;22;20011;-63
2022/04/25 00:17:30;;;;;;;6.95;5.85;;;;;;;14.52;43.10;100721.28;6338583;22;20097;-63
2022/04/25 00:19:56;;;;;;;10.65;6.53;;;;;;;14.49;43.30;100721.53;6337097;22;20037;-63
2022/04/25 00:22:27;;;;;;;8.95;6.03;;;;;;;14.46;43.38;100721.81;6338809;22;20014;-64
2022/04/25 00:24:54;;;;;;;7.35;5.72;;;;;;;14.47;43.43;100731.63;6337958;22;20465;-63
2022/04/25 00:27:21;;;;;;;10.07;6.78;;;;;;;14.48;43.36;100725.25;6338575;22;20007;-63
2022/04/25 00:29:53;;;;;;;10.40;5.93;;;;;;;14.46;43.36;100732.63;6337484;22;20045;-63
2022/04/25 00:32:24;;;;;;;9.02;6.72;;;;;;;14.45;43.56;100730.91;6337980;22;20015;-63
2022/04/25 00:34:50;;;;;;;9.77;6.72;;;;;;;14.43;43.59;100723.94;6339456;22;20014;-63
2022/04/25 00:37:17;;;;;;;8.32;6.35;;;;;;;14.41;43.51;100731.28;6339817;22;20333;-64
2022/04/25 00:39:43;;;;;;;10.20;6.75;;;;;;;14.38;43.56;100724.31;6338281;22;20015;-63
2022/04/25 00:42:11;;;;;;;11.77;6.57;;;;;;;14.35;43.71;100721.88;6338598;22;20014;-63
2022/04/25 00:44:38;;;;;;;8.90;6.28;;;;;;;14.32;43.74;100725.72;6339237;22;20015;-63
2022/04/25 00:47:06;;;;;;;9.30;6.93;;;;;;;14.29;43.75;100728.69;6311635;22;20314;-63
2022/04/25 00:49:33;;;;;;;9.13;6.20;;;;;;;14.26;43.78;100733.50;6311854;22;20019;-63
2022/04/25 00:52:01;;;;;;;9.10;7.03;;;;;;;14.23;43.86;100725.69;6338623;22;20021;-63
2022/04/25 00:54:28;;;;;;;9.05;6.07;;;;;;;14.19;43.81;100726.94;6338872;22;20437;-64
2022/04/25 00:56:55;;;;;;;10.38;7.13;;;;;;;14.13;43.90;100736.44;6339126;22;20433;-63
2022/04/25 00:59:21;;;;;;;10.23;7.45;;;;;;;14.10;43.86;100733.13;6339266;22;20025;-64
2022/04/25 01:01:52;;;;;;;9.90;7.35;;;;;;;14.06;43.94;100724.44;6338256;22;20204;-63
2022/04/25 01:04:20;;;;;;;11.90;7.05;;;;;;;14.03;44.15;100729.25;6339477;22;20060;-63
2022/04/25 01:06:48;;;;;;;8.63;6.53;;;;;;;13.99;44.25;100729.50;6339170;22;20021;-63
2022/04/25 01:09:14;;;;;;;11.73;6.57;;;;;;;13.98;44.24;100733.19;6310928;22;20018;-63
2022/04/25 01:11:44;;;;;;;8.25;6.72;;;;;;;13.93;44.30;100730.03;6311327;22;20042;-63
2022/04/25 01:14:13;;;;;;;12.30;6.47;;;;;;;13.92;44.14;100732.88;6339099;22;20025;-63
2022/04/25 01:16:40;;;;;;;9.00;6.90;;;;;;;13.89;44.34;100731.31;6338176;22;20021;-64
2022/04/25 01:19:07;;;;;;;8.07;6.72;;;;;;;13.86;44.46;100726.16;6338557;22;20421;-62
2022/04/25 01:21:58;;;;;;;9.15;6.78;;;;;;;13.82;44.54;100732.81;6338287;22;20018;-63
2022/04/25 01:27:17;;;;;;;;;;;;;;;13.79;44.22;100724.13;6339515;22;20037;-62
2022/04/25 01:29:46;;;;;;;8.40;6.20;;;;;;;13.78;43.94;100723.28;6338547;22;19918;-63
2022/04/25 01:32:18;;;;;;;8.55;5.72;;;;;;;13.75;43.84;100723.53;6338610;22;20010;-62
2022/04/25 01:34:45;;;;;;;8.85;6.28;;;;;;;13.68;44.11;100725.91;6310925;22;20046;-63
2022/04/25 01:37:16;;;;;;;11.00;7.05;;;;;;;13.60;44.19;100727.56;6339078;22;20007;-63
2022/04/25 01:39:50;;;;;;;8.35;6.78;;;;;;;13.54;44.38;100720.00;6311069;22;20015;-63
2022/04/25 01:42:22;;;;;;;8.43;6.53;;;;;;;13.47;44.50;100725.06;6339052;22;20011;-63
2022/04/25 01:44:50;;;;;;;9.10;6.95;;;;;;;13.43;44.55;100725.44;6338970;22;20015;-63
2022/04/25 01:47:18;;;;;;;10.70;6.55;;;;;;;13.40;44.59;100726.56;6338953;22;20014;-63
2022/04/25 01:49:44;;;;;;;8.73;6.10;;;;;;;13.36;44.78;100725.94;6338641;22;20621;-63
2022/04/25 01:52:33;;;;;;;10.15;6.85;;;;;;;13.33;45.12;100728.88;6338865;22;20023;-63
2022/04/25 01:55:01;;;;;;;10.93;7.20;;;;;;;13.28;44.88;100725.72;6338906;22;20021;-63
2022/04/25 01:57:28;;;;;;;10.18;7.00;;;;;;;13.26;44.89;100729.53;6338922;22;20480;-62
2022/04/25 01:59:57;;;;;;;10.70;7.07;;;;;;;13.21;45.14;100723.69;6337658;22;20011;-62
2022/04/25 02:02:27;;;;;;;11.45;7.18;;;;;;;13.14;45.27;100726.00;6337271;22;20018;-63
2022/04/25 02:04:55;;;;;;;11.00;7.20;;;;;;;13.11;45.24;100720.00;6338073;22;20037;-62
2022/04/25 02:07:22;;;;;;;10.82;6.82;;;;;;;13.06;45.26;100723.09;6337902;22;20022;-63
2022/04/25 02:09:48;;;;;;;12.90;7.57;;;;;;;12.99;45.36;100722.75;6284040;22;20041;-62
2022/04/25 02:12:20;;;;;;;11.32;7.20;;;;;;;12.92;45.43;100723.38;6337881;22;20015;-63
2022/04/25 02:14:47;;;;;;;11.75;7.80;;;;;;;12.82;45.37;100725.97;6337837;22;20019;-63
2022/04/25 02:17:14;;;;;;;11.18;8.13;;;;;;;12.75;45.52;100719.38;6338038;22;20379;-63
2022/04/25 02:19:43;;;;;;;9.75;7.43;;;;;;;12.69;45.75;100717.19;6337442;22;20019;-63
2022/04/25 02:22:13;;;;;;;13.07;7.57;;;;;;;12.63;45.86;100721.25;6336952;22;20090;-63
2022/04/25 02:24:41;;;;;;;12.88;8.00;;;;;;;12.57;45.92;100729.78;6338151;22;20007;-63
2022/04/25 02:27:08;;;;;;;14.18;8.07;;;;;;;12.53;46.07;100724.78;6337221;22;20022;-63
2022/04/25 02:29:40;;;;;;;10.75;8.20;;;;;;;12.50;46.16;100723.19;6337350;22;20466;-64
2022/04/25 02:32:12;;;;;;;12.70;7.55;;;;;;;12.47;46.34;100723.44;6337429;22;20011;-63
2022/04/25 02:34:40;;;;;;;12.30;7.82;;;;;;;12.45;46.46;100719.16;6309988;22;20015;-63
2022/04/25 02:37:08;;;;;;;14.85;8.02;;;;;;;12.44;46.51;100723.69;6309394;22;20345;-63
2022/04/25 02:39:35;;;;;;;14.15;7.78;;;;;;;12.44;46.50;100717.44;6337260;22;20011;-63
2022/04/25 02:42:03;;;;;;;13.68;7.65;;;;;;;12.44;46.62;100721.00;6337019;22;20014;-63
2022/04/25 02:44:30;;;;;;;9.57;7.57;;;;;;;12.44;46.83;100726.38;6337042;22;20353;-63
2022/04/25 02:46:57;;;;;;;10.38;7.53;;;;;;;12.45;46.72;100721.84;6337551;22;20014;-62
2022/04/25 02:49:24;;;;;;;15.80;8.43;;;;;;;12.43;46.98;100729.19;6337918;22;20316;-63
2022/04/25 02:51:52;;;;;;;12.52;7.97;;;;;;;12.37;46.67;100726.03;6336698;22;20018;-62
2022/04/25 02:54:19;;;;;;;11.77;7.97;;;;;;;12.31;46.77;100722.97;6337401;22;20021;-63
2022/04/25 02:56:45;;;;;;;10.70;8.27;;;;;;;12.26;46.91;100730.56;6310272;22;20011;-63
2022/04/25 02:59:12;;;;;;;11.70;7.85;;;;;;;12.22;47.04;100731.78;6337739;22;20329;-63
2022/04/25 03:01:43;;;;;;;11.98;8.43;;;;;;;12.15;47.05;100723.34;6336904;22;20019;-63
2022/04/25 03:04:10;;;;;;;13.40;9.27;;;;;;;12.11;47.04;100731.78;6337657;22;20067;-63
2022/04/25 03:06:37;;;;;;;12.25;8.30;;;;;;;12.05;47.18;100733.97;6339848;22;20011;-64
2022/04/25 03:09:03;;;;;;;12.90;8.75;;;;;;;12.01;47.24;100728.94;6339001;22;20023;-63
2022/04/25 03:11:34;;;;;;;11.93;8.45;;;;;;;11.97;47.28;100736.41;6338019;22;20018;-63
2022/04/25 03:14:01;;;;;;;10.75;8.50;;;;;;;11.94;47.35;100731.28;6338859;22;20018;-63
2022/04/25 03:16:29;;;;;;;20.45;8.57;;;;;;;11.93;47.53;100734.94;6339189;22;20360;-63
2022/04/25 03:18:58;;;;;;;14.23;7.85;;;;;;;11.91;47.38;100728.81;6338566;22;20433;-63
2022/04/25 03:21:29;;;;;;;12.00;8.82;;;;;;;11.90;47.52;100735.19;6338550;22;20109;-63
2022/04/25 03:23:56;;;;;;;14.32;9.18;;;;;;;11.86;47.49;100731.00;6339033;22;20038;-63
2022/04/25 03:26:24;;;;;;;12.10;8.40;;;;;;;11.84;47.69;100737.47;6338778;22;20086;-63
2022/04/25 03:28:50;;;;;;;14.48;8.82;;;;;;;11.80;47.84;100736.00;6338768;22;20237;-62
2022/04/25 03:31:17;;;;;;;12.48;8.77;;;;;;;11.78;47.75;100734.28;6338068;22;20025;-63
2022/04/25 03:33:44;;;;;;;12.70;9.07;;;;;;;11.77;47.85;100720.91;6339270;22;20021;-63
2022/04/25 03:36:10;;;;;;;12.57;8.85;;;;;;;11.76;47.93;100732.66;6338954;22;20025;-63
2022/04/25 03:38:37;;;;;;;12.20;7.90;;;;;;;11.74;47.97;100727.38;6338441;22;20018;-62
2022/04/25 03:41:07;;;;;;;11.57;8.48;;;;;;;11.72;47.98;100734.72;6338088;22;20344;-63
2022/04/25 03:43:34;;;;;;;12.48;8.50;;;;;;;11.68;48.06;100733.25;6311027;22;20357;-62
2022/04/25 03:46:01;;;;;;;14.18;8.88;;;;;;;11.66;48.12;100732.50;6286230;22;20010;-63
2022/04/25 03:48:28;;;;;;;13.82;9.02;;;;;;;11.66;48.05;100739.72;6338413;22;20037;-63
2022/04/25 03:50:59;;;;;;;13.85;9.40;;;;;;;11.63;48.23;100742.66;6337970;22;20043;-63
2022/04/25 03:53:26;;;;;;;12.55;9.20;;;;;;;11.61;48.39;100744.59;6338422;22;20015;-63
2022/04/25 03:58:37;;;;;;;11.13;8.82;;;;;;;11.57;48.37;100751.19;6338264;22;20452;-63
2022/04/25 04:01:09;;;;;;;10.13;8.02;;;;;;;11.54;48.70;100746.91;6338053;22;20010;-63
2022/04/25 04:03:36;;;;;;;12.98;9.57;;;;;;;11.54;48.44;100754.97;6338556;22;20018;-63
2022/04/25 04:06:03;;;;;;;13.57;8.90;;;;;;;11.53;48.46;100755.09;6338749;22;20060;-63
2022/04/25 04:08:29;;;;;;;15.32;9.38;;;;;;;11.47;48.62;100751.03;6338192;22;20093;-63
2022/04/25 04:10:58;;;;;;;14.40;9.10;;;;;;;11.43;48.65;100754.94;6337388;22;20018;-63
2022/04/25 04:13:25;;;;;;;14.30;9.05;;;;;;;11.39;48.81;100756.13;6338119;22;20019;-64
2022/04/25 04:15:52;;;;;;;11.85;8.88;;;;;;;11.34;48.74;100756.50;6338144;22;20082;-63
2022/04/25 04:18:19;;;;;;;12.48;9.30;;;;;;;11.31;48.82;100758.56;6338249;22;20049;-63
2022/04/25 04:20:49;;;;;;;12.05;9.45;;;;;;;11.28;48.91;100761.47;6337631;22;20022;-63
2022/04/25 04:23:16;;;;;;;14.70;9.90;;;;;;;11.26;48.82;100761.59;6338344;22;20011;-63
2022/04/25 04:25:42;;;;;;;17.55;10.45;;;;;;;11.25;48.96;100764.38;6338197;22;20040;-63
2022/04/25 04:28:09;;;;;;;14.43;9.13;;;;;;;11.26;49.04;100768.78;6338044;22;20015;-63
2022/04/25 04:30:39;;;;;;;11.95;9.57;;;;;;;11.28;49.46;100767.72;6337242;22;20437;-63
2022/04/25 04:33:07;;;;;;;15.23;10.02;;;;;;;11.31;49.30;100774.69;6337489;22;20011;-63
2022/04/25 04:38:20;;;;;;;15.65;10.02;;;;;;;11.40;49.52;100771.28;6310178;22;20326;-63
2022/04/25 04:40:49;;;;;;;15.55;10.85;;;;;;;11.46;49.69;100777.06;6337409;22;20041;-64
2022/04/25 04:43:16;;;;;;;17.08;11.63;;;;;;;11.50;49.68;100774.16;6338054;22;20015;-64
2022/04/25 04:45:44;;;;;;;15.13;11.25;;;;;;;11.54;49.83;100775.63;6337996;22;20014;-63
2022/04/25 04:48:11;;;;;;;17.67;12.10;;;;;;;11.60;50.03;100781.41;6337752;22;20395;-63
2022/04/25 04:50:41;;;;;;;15.27;11.23;;;;;;;11.64;50.26;100780.19;6337170;22;20015;-63
2022/04/25 04:53:08;;;;;;;20.17;12.32;;;;;;;11.69;50.06;100788.75;6338155;22;20017;-63
2022/04/25 04:55:36;;;;;;;15.38;11.27;;;;;;;11.73;50.12;100792.06;6310251;22;20017;-63
2022/04/25 04:58:03;;;;;;;17.02;12.02;;;;;;;11.76;50.21;100791.84;6337830;22;20039;-63
2022/04/25 05:00:31;;;;;;;15.88;11.27;;;;;;;11.78;50.35;100798.84;6337142;22;20018;-63
2022/04/25 05:02:57;;;;;;;16.83;11.48;;;;;;;11.80;50.33;100800.56;6337683;22;20018;-63
2022/04/25 05:05:26;;;;;;;17.58;12.05;;;;;;;11.82;50.27;100804.00;6338041;22;20361;-63
2022/04/25 05:07:52;;;;;;;15.40;11.43;;;;;;;11.83;50.33;100811.94;6337881;22;20306;-63
2022/04/25 05:10:20;;;;;;;13.73;11.15;;;;;;;11.83;50.63;100803.88;6337257;22;20018;-63
2022/04/25 05:12:47;;;;;;;15.95;11.27;;;;;;;11.85;50.52;100814.53;6310444;22;20046;-65
2022/04/25 05:15:14;;;;;;;17.55;11.02;;;;;;;11.87;50.74;100816.13;6337806;22;20011;-63
2022/04/25 05:17:44;;;;;;;16.25;11.18;;;;;;;11.93;50.78;100821.06;6310278;22;20015;-63
2022/04/25 05:20:12;;;;;;;16.85;10.55;;;;;;;11.96;50.67;100815.44;6337570;22;20406;-64
2022/04/25 05:22:40;;;;;;;14.98;11.50;;;;;;;12.00;50.87;100825.00;6337928;22;20015;-62
2022/04/25 05:25:07;;;;;;;21.23;11.95;;;;;;;12.04;50.82;100821.09;6337572;22;20041;-63
2022/04/25 05:27:34;;;;;;;20.00;12.30;;;;;;;12.08;50.85;100827.94;6337173;22;20445;-63
2022/04/25 05:30:00;;;;;;;21.00;12.23;;;;;;;12.13;50.97;100829.44;6336386;22;20015;-63
2022/04/25 05:32:27;;;;;;;21.50;12.20;;;;;;;12.17;51.00;100825.53;6336924;22;20376;-63
2022/04/25 05:34:53;;;;;;;16.15;11.65;;;;;;;12.20;51.12;100822.59;6337399;22;20014;-64
2022/04/25 05:37:20;;;;;;;18.95;13.00;;;;;;;12.24;51.12;100826.75;6337369;22;20015;-63
2022/04/25 05:39:47;;;;;;;17.98;12.85;;;;;;;12.28;51.12;100839.00;6336934;22;20021;-64
2022/04/25 05:42:15;;;;;;;17.23;12.23;;;;;;;12.31;51.06;100842.31;6310091;22;20025;-64
2022/04/25 05:44:41;;;;;;;19.73;12.98;;;;;;;12.35;51.18;100849.16;6337961;22;20015;-64
2022/04/25 05:47:08;;;;;;;18.13;11.82;;;;;;;12.40;51.20;100844.28;6338040;22;20311;-64
2022/04/25 05:52:21;;;;;;;18.88;13.15;;;;;;;12.47;51.23;100850.03;6337410;22;20445;-63
2022/04/25 05:54:47;;;;;;;16.38;12.15;;;;;;;12.52;51.25;100846.97;6336620;22;20021;-63
2022/04/25 05:57:14;;;;;;;17.13;12.73;;;;;;;12.56;51.29;100851.13;6308950;22;20352;-62
2022/04/25 05:59:41;;;;;;;18.20;13.30;;;;;;;12.59;51.40;100853.59;6337190;22;20098;-63
2022/04/25 06:02:09;;;;;;;17.95;12.77;;;;;;;12.63;51.47;100847.88;6337264;22;20345;-62
2022/04/25 06:04:35;;;;;;;18.95;12.75;;;;;;;12.65;51.52;100843.22;6309831;22;20037;-62
2022/04/25 06:07:04;;;;;;;18.63;13.85;;;;;;;12.69;51.54;100847.38;6337110;22;20015;-62
2022/04/25 06:09:31;;;;;;;19.27;13.15;;;;;;;12.74;51.43;100855.09;6337133;22;20453;-63
2022/04/25 06:12:04;;;;;;;19.15;14.27;;;;;;;12.78;51.67;100859.25;6336912;22;20345;-63
2022/04/25 06:14:32;;;;;;;20.73;13.95;;;;;;;12.80;51.74;100861.84;6337114;22;20007;-63
2022/04/25 06:17:01;;;;;;;20.67;14.82;;;;;;;12.80;51.75;100867.22;6336775;22;20007;-63
2022/04/25 06:19:28;;;;;;;20.88;14.00;;;;;;;12.83;51.84;100865.13;6336920;22;20061;-63
2022/04/25 06:21:56;;;;;;;24.67;16.17;;;;;;;12.88;51.95;100865.63;6337389;22;20349;-63
2022/04/25 06:24:22;;;;;;;23.58;15.30;;;;;;;12.93;51.98;100876.03;6336597;22;20011;-62
2022/04/25 06:26:49;;;;;;;20.25;15.18;;;;;;;12.99;51.82;100873.72;6309209;22;20010;-63
2022/04/25 06:29:16;;;;;;;19.80;14.88;;;;;;;13.03;52.05;100869.78;6336867;22;20040;-63
2022/04/25 06:31:46;;;;;;;19.67;15.68;;;;;;;13.05;52.15;100873.22;6337149;22;20341;-63
2022/04/25 06:34:12;;;;;;;18.13;14.95;;;;;;;13.09;52.06;100873.81;6337399;22;20014;-63
2022/04/25 06:36:39;;;;;;;20.80;15.65;;;;;;;13.14;52.22;100876.13;6337334;22;20017;-63
2022/04/25 06:39:05;;;;;;;22.45;16.00;;;;;;;13.18;52.22;100873.09;6336423;22;20018;-62
2022/04/25 06:41:34;;;;;;;20.48;15.35;;;;;;;13.21;52.25;100882.78;6336660;22;20372;-64
2022/04/25 06:44:01;;;;;;;22.58;16.20;;;;;;;13.24;52.15;100877.13;6337284;22;20017;-64
2022/04/25 06:46:29;;;;;;;20.45;16.08;;;;;;;13.25;52.47;100882.41;6336683;22;20015;-64
2022/04/25 06:51:42;;;;;;;28.10;18.07;;;;;;;13.33;52.81;100884.47;6336766;22;20297;-63
2022/04/25 06:54:08;;;;;;;24.08;17.95;;;;;;;13.36;52.85;100879.69;6336282;22;20019;-63
2022/04/25 06:56:38;;;;;;;26.67;18.08;;;;;;;13.40;52.84;100887.56;6336913;22;20017;-64
2022/04/25 06:59:04;;;;;;;25.42;18.60;;;;;;;13.41;53.05;100890.13;6336562;22;20021;-64
2022/04/25 07:01:35;;;;;;;27.38;18.55;;;;;;;13.41;53.31;100892.81;6308791;22;20018;-64
2022/04/25 07:04:02;;;;;;;27.30;19.42;;;;;;;13.44;53.24;100894.41;6336788;22;20007;-64
2022/04/25 07:06:29;;;;;;;23.90;18.58;;;;;;;13.44;53.45;100889.03;6336854;22;20400;-64
2022/04/25 07:08:55;;;;;;;27.75;19.65;;;;;;;13.45;53.37;100888.91;6309551;22;20011;-64
2022/04/25 07:11:48;;;;;;;29.15;20.55;;;;;;;13.46;53.85;100896.00;6336129;22;20019;-63
2022/04/25 07:14:16;;;;;;;26.15;19.75;;;;;;;13.50;53.58;100891.22;6336846;22;20018;-63
2022/04/25 07:16:44;;;;;;;27.58;21.10;;;;;;;13.55;53.94;100899.78;6335990;22;20042;-63
2022/04/25 07:19:15;;;;;;;25.27;20.15;;;;;;;13.60;54.17;100903.81;6308900;22;20023;-64
2022/04/25 07:30:21;;;;;;;30.58;22.52;;;;;;;13.85;54.52;100907.16;6336295;22;20011;-64
2022/04/25 07:32:47;;;;;;;28.40;21.20;;;;;;;13.91;54.35;100907.50;6336516;22;20441;-64
2022/04/25 07:35:14;;;;;;;26.58;22.48;;;;;;;13.96;54.65;100905.28;6336593;22;20041;-64
2022/04/25 07:37:42;;;;;;;30.00;22.30;;;;;;;14.01;54.49;100907.59;6336549;22;20060;-63
2022/04/25 07:40:13;;;;;;;27.30;21.17;;;;;;;14.03;54.66;100910.16;6336309;22;20445;-65
2022/04/25 07:42:40;;;;;;;25.40;21.65;;;;;;;14.05;54.72;100919.84;6336324;22;20015;-64
2022/04/25 07:45:08;;;;;;;30.05;23.15;;;;;;;14.06;54.57;100921.56;6336622;22;20015;-64
2022/04/25 07:47:42;;;;;;;28.38;21.85;;;;;;;14.06;54.54;100923.41;6336578;22;20361;-65
2022/04/25 07:50:15;;;;;;;25.20;20.73;;;;;;;14.07;54.82;100928.66;6336761;22;20094;-64
2022/04/25 07:52:41;;;;;;;30.00;23.23;;;;;;;14.10;54.72;100927.56;6338126;22;20021;-63
2022/04/25 07:55:09;;;;;;;28.30;22.65;;;;;;;14.10;54.72;100925.72;6338341;22;20026;-63
2022/04/25 07:57:35;;;;;;;28.77;21.80;;;;;;;14.12;54.77;100933.69;6338661;22;20010;-63
2022/04/25 08:00:04;;;;;;;28.20;22.98;;;;;;;14.10;54.90;100930.25;6338443;22;20044;-64
2022/04/25 08:02:34;;;;;;;30.90;23.80;;;;;;;14.05;54.58;100935.19;6336960;22;20011;-63
2022/04/25 08:05:00;;;;;;;32.55;24.02;;;;;;;14.02;54.69;100941.72;6338604;22;20015;-63
2022/04/25 08:07:28;;;;;;;32.00;23.80;;;;;;;14.02;54.90;100943.53;6337927;22;20022;-64
2022/04/25 08:09:55;;;;;;;30.08;24.23;;;;;;;14.02;54.77;100943.53;6337433;22;20014;-63
2022/04/25 08:18:01;;;;;;;28.63;22.13;;;;;;;14.03;54.97;100956.06;6337976;22;20015;-63
2022/04/25 08:20:34;;;;;;;29.90;22.48;;;;;;;14.04;55.12;100957.78;6338012;22;20090;-63
2022/04/25 08:23:10;;;;;;;24.95;20.40;;;;;;;14.00;55.06;100965.28;6310691;22;20423;-63
2022/04/25 08:25:38;;;;;;;26.08;20.30;;;;;;;13.98;54.85;100967.25;6337785;22;20128;-62
2022/04/25 08:28:05;;;;;;;28.48;20.60;;;;;;;13.96;55.08;100966.53;6338191;22;20010;-62
2022/04/25 08:30:37;;;;;;;25.73;20.70;;;;;;;13.94;54.90;100976.59;6309860;22;20042;-64
2022/04/25 08:33:04;;;;;;;26.80;21.23;;;;;;;13.91;55.11;100972.31;6337819;22;20026;-64
2022/04/25 08:35:30;;;;;;;24.77;18.70;;;;;;;13.91;55.19;100971.44;6335847;22;20453;-65
2022/04/25 08:37:57;;;;;;;26.30;20.08;;;;;;;13.90;54.99;100977.84;6309191;22;20090;-64
2022/04/25 08:40:28;;;;;;;28.05;20.67;;;;;;;13.91;55.18;100975.00;6337648;22;20014;-64
2022/04/25 08:42:57;;;;;;;24.13;19.88;;;;;;;13.92;55.05;100986.66;6336051;22;20018;-64
2022/04/25 08:45:31;;;;;;;22.75;19.45;;;;;;;13.93;55.24;100982.97;6336688;22;20011;-64
2022/04/25 08:47:59;;;;;;;23.27;18.63;;;;;;;13.92;55.04;100992.06;6310144;22;20015;-63
2022/04/25 08:50:30;;;;;;;26.75;20.33;;;;;;;13.91;55.04;100990.34;6310833;22;20018;-63
2022/04/25 08:52:57;;;;;;;25.42;19.70;;;;;;;13.90;55.21;100986.78;6338552;22;20097;-65
2022/04/25 08:55:26;;;;;;;21.88;19.05;;;;;;;13.89;55.27;100995.88;6337996;22;20060;-62
2022/04/25 08:57:55;;;;;;;24.35;18.77;;;;;;;13.90;55.20;100989.50;6338197;22;20011;-63
2022/04/25 09:00:22;;;;;;;21.73;19.02;;;;;;;13.93;55.31;100994.63;6337349;22;20394;-63
2022/04/25 09:02:49;;;;;;;25.20;20.15;;;;;;;13.95;55.45;101002.59;6337141;22;20026;-63
2022/04/25 09:05:17;;;;;;;23.90;18.58;;;;;;;13.97;55.44;101006.91;6337577;22;20438;-63
2022/04/25 09:07:44;;;;;;;23.38;18.75;;;;;;;14.00;55.46;101003.09;6337275;22;20007;-63
2022/04/25 09:10:17;;;;;;;24.98;19.27;;;;;;;14.02;55.48;101009.22;6309977;22;20399;-64
2022/04/25 09:12:46;;;;;;;25.85;19.50;;;;;;;14.04;55.43;101014.50;6337512;22;20037;-63
2022/04/25 09:15:18;;;;;;;28.20;19.45;;;;;;;14.06;55.62;101015.22;6337351;22;20007;-64
2022/04/25 09:17:55;;;;;;;23.67;17.73;;;;;;;14.07;55.43;101012.38;6337666;22;20318;-63
2022/04/25 09:20:26;;;;;;;23.35;17.65;;;;;;;14.08;55.49;101015.94;6337792;22;20014;-63
2022/04/25 09:22:55;;;;;;;23.67;18.17;;;;;;;14.07;55.44;101014.22;6337876;22;20017;-63
2022/04/25 09:25:22;;;;;;;22.25;18.65;;;;;;;14.06;55.57;101017.91;6337519;22;20275;-63
2022/04/25 09:28:14;;;;;;;23.10;18.88;;;;;;;14.06;55.56;101029.59;6337230;22;20015;-63
2022/04/25 09:31:00;;;;;;;24.83;19.15;;;;;;;14.05;55.77;101033.25;6337825;22;20036;-64
2022/04/25 09:33:28;;;;;;;23.85;19.00;;;;;;;14.08;55.69;101024.06;6309783;22;20015;-63
2022/04/25 09:35:57;;;;;;;23.98;19.45;;;;;;;14.10;55.63;101032.88;6337521;22;20503;-65
2022/04/25 09:38:30;;;;;;;26.67;19.92;;;;;;;14.11;55.46;101032.75;6337679;22;20045;-63
2022/04/25 09:40:59;;;;;;;25.38;19.30;;;;;;;14.11;55.66;101032.75;6337343;22;20060;-63
2022/04/25 09:43:31;;;;;;;26.60;20.00;;;;;;;14.12;55.69;101029.09;6337294;22;20046;-64
2022/04/25 09:46:09;;;;;;;27.45;20.00;;;;;;;14.14;55.58;101028.97;6337474;22;20046;-63
2022/04/25 09:48:39;;;;;;;25.92;19.65;;;;;;;14.13;55.53;101030.81;6311870;22;20019;-63
2022/04/25 09:51:09;;;;;;;27.63;18.52;;;;;;;14.13;55.54;101033.53;6337309;22;20018;-63
2022/04/25 09:53:42;;;;;;;25.02;18.90;;;;;;;14.14;55.67;101029.84;6337064;22;20022;-63
2022/04/25 09:56:15;;;;;;;26.13;19.98;;;;;;;14.16;55.51;101035.97;6310021;22;20378;-63
2022/04/25 09:58:44;;;;;;;27.73;20.88;;;;;;;14.18;55.64;101036.69;6337807;22;20030;-63
2022/04/25 10:01:13;;;;;;;26.00;19.98;;;;;;;14.21;55.63;101038.28;6337050;22;20025;-63
2022/04/25 10:03:42;;;;;;;25.05;20.17;;;;;;;14.25;55.62;101047.84;6337379;22;20022;-63
2022/04/25 10:06:09;;;;;;;23.75;19.13;;;;;;;14.29;55.54;101049.31;6337354;22;20013;-63
2022/04/25 10:08:37;;;;;;;26.13;19.30;;;;;;;14.31;55.62;101050.03;6337266;22;20014;-63
2022/04/25 10:11:07;;;;;;;29.52;20.52;;;;;;;14.31;55.41;101052.75;6309863;22;20337;-63
2022/04/25 10:13:35;;;;;;;32.17;21.25;;;;;;;14.31;55.32;101058.16;6337164;22;20449;-62
2022/04/25 10:16:02;;;;;;;25.75;19.58;;;;;;;14.34;55.56;101060.59;6337229;22;20424;-63
2022/04/25 10:18:33;;;;;;;28.70;21.58;;;;;;;14.35;55.41;101067.72;6310012;22;20344;-63
2022/04/25 10:21:04;;;;;;;28.17;21.98;;;;;;;14.37;55.69;101067.56;6337199;22;20021;-63
2022/04/25 10:23:30;;;;;;;28.48;21.55;;;;;;;14.38;55.57;101061.19;6310387;22;20345;-63
2022/04/25 10:26:01;;;;;;;26.45;20.15;;;;;;;14.41;55.50;101061.78;6337277;22;20023;-63
2022/04/25 10:28:31;;;;;;;31.35;22.88;;;;;;;14.43;55.69;101067.97;6337123;22;20011;-63
2022/04/25 10:31:20;;;;;;;26.90;20.63;;;;;;;14.50;55.75;101074.56;6337311;22;20011;-63
2022/04/25 10:33:50;;;;;;;26.58;20.30;;;;;;;14.56;55.62;101074.06;6337227;22;20019;-63
2022/04/25 10:36:38;;;;;;;26.02;20.27;;;;;;;14.59;55.75;101067.53;6337272;22;20332;-63
2022/04/25 10:39:22;;;;;;;25.48;20.15;;;;;;;14.62;55.56;101069.97;6309977;22;20053;-63
2022/04/25 10:44:45;;;;;;;25.35;19.48;;;;;;;14.63;55.50;101075.25;6337433;22;20333;-63
2022/04/25 10:47:14;;;;;;;28.42;19.30;;;;;;;14.62;55.27;101078.94;6337574;22;20010;-64
2022/04/25 10:49:46;;;;;;;26.92;19.25;;;;;;;14.61;55.03;101084.47;6337004;22;20080;-63
2022/04/25 10:52:31;;;;;;;24.90;18.83;;;;;;;14.60;55.49;101086.31;6337488;22;20015;-63
2022/04/25 10:55:20;;;;;;;25.20;18.80;;;;;;;14.63;55.35;101075.25;6337315;22;20033;-63
2022/04/25 10:58:07;;;;;;;26.80;19.20;;;;;;;14.65;55.64;101082.38;6337958;22;20310;-63
2022/04/25 11:00:40;;;;;;;23.90;18.20;;;;;;;14.66;55.19;101084.09;6337485;22;20037;-64
2022/04/25 11:03:28;;;;;;;24.58;19.40;;;;;;;14.65;55.33;101094.03;6337507;22;20445;-63
2022/04/25 11:06:06;;;;;;;23.35;17.27;;;;;;;14.66;55.34;101084.09;6337916;22;20014;-64
2022/04/25 11:08:37;;;;;;;25.60;18.95;;;;;;;14.70;55.44;101093.66;6337650;22;20014;-63
2022/04/25 11:11:09;;;;;;;24.45;18.88;;;;;;;14.72;55.18;101091.69;6337473;22;20090;-63
2022/04/25 11:14:04;;;;;;;24.60;17.92;;;;;;;14.73;55.52;101090.69;6337539;22;20033;-63
2022/04/25 11:16:31;;;;;;;26.42;19.67;;;;;;;14.75;55.19;101094.97;6336708;22;20014;-64
2022/04/25 11:19:22;;;;;;;22.67;17.98;;;;;;;14.78;55.37;101094.72;6309414;22;20015;-64
2022/04/25 11:21:55;;;;;;;23.17;17.67;;;;;;;14.81;55.34;101101.72;6337014;22;20021;-64
2022/04/25 11:24:26;;;;;;;24.77;17.45;;;;;;;14.83;55.27;101094.31;6336933;22;20019;-63
2022/04/25 11:26:54;;;;;;;24.20;17.27;;;;;;;14.83;55.11;101105.13;6338673;22;20018;-63
2022/04/25 11:29:21;;;;;;;23.83;16.70;;;;;;;14.84;54.99;101101.44;6311611;22;20011;-63
2022/04/25 11:31:49;;;;;;;21.77;16.65;;;;;;;14.84;54.93;101112.25;6338970;22;20017;-63
2022/04/25 11:34:20;;;;;;;25.52;18.42;;;;;;;14.85;55.25;101105.88;6339249;22;20011;-63
2022/04/25 11:36:47;;;;;;;22.13;18.25;;;;;;;14.88;55.00;101116.47;6312165;22;20177;-63
2022/04/25 11:42:06;;;;;;;25.95;17.90;;;;;;;14.92;55.00;101113.34;6338935;22;20357;-63
2022/04/25 11:44:38;;;;;;;25.52;18.00;;;;;;;14.96;54.97;101122.06;6339055;22;20441;-63
2022/04/25 11:47:06;;;;;;;24.63;17.67;;;;;;;14.99;54.80;101119.09;6338900;22;20017;-63
2022/04/25 11:49:35;;;;;;;24.25;18.17;;;;;;;15.00;54.95;101126.22;6339141;22;20097;-63
2022/04/25 11:52:05;;;;;;;26.80;18.60;;;;;;;15.03;54.87;101122.41;6338874;22;20506;-63
2022/04/25 11:54:32;;;;;;;25.35;18.45;;;;;;;15.03;54.89;101131.38;6338606;22;20018;-63
2022/04/25 11:57:01;;;;;;;22.30;17.70;;;;;;;15.01;54.58;101130.66;6339049;22;20011;-63